createdAt,value
2022-10-16T04:49:54.936Z,0.373
2022-10-16T04:58:05.057Z,0.747
2022-10-16T05:00:53.539Z,1.494
2022-10-16T05:03:52.146Z,2.614
2022-10-16T05:06:30.414Z,4.108
2022-10-16T05:09:28.977Z,8.217
2022-10-16T05:12:02.047Z,14.193
2022-10-16T05:14:55.579Z,24.277
2022-10-16T05:17:41.112Z,38.844
2022-10-16T05:20:43.510Z,61.254
2022-10-16T05:23:16.617Z,83.29
2022-10-16T05:26:00.432Z,110.556
2022-10-16T05:28:48.877Z,144.918
2022-10-16T05:31:27.059Z,191.232
2022-10-16T05:34:05.198Z,240.534
2022-10-16T05:36:48.591Z,298.8
2022-10-16T05:39:36.988Z,385.452
2022-10-16T05:42:10.039Z,519.912
2022-10-16T05:44:48.252Z,672.3
2022-10-16T05:47:20.827Z,714.132
2022-10-16T05:49:59.066Z,645.408
2022-10-16T05:53:02.694Z,639.432
2022-10-16T05:55:35.762Z,744.012
2022-10-16T05:58:14.213Z,920.304
2022-10-16T06:00:52.470Z,1207.152
2022-10-16T06:03:30.592Z,1398.384
2022-10-16T06:06:49.556Z,1523.88
2022-10-16T06:09:32.799Z,1577.664
2022-10-16T06:12:26.196Z,1709.136
2022-10-16T06:15:37.266Z,1828.656
2022-10-16T06:18:35.844Z,2079.648
2022-10-16T06:21:19.121Z,2318.688
2022-10-16T06:23:52.269Z,2426.256
2022-10-16T06:26:35.599Z,2509.92
2022-10-16T06:29:08.766Z,2545.776
2022-10-16T06:32:12.402Z,2760.912
2022-10-16T06:34:45.491Z,3657.312
2022-10-16T06:37:18.611Z,4565.664
2022-10-16T06:40:37.571Z,4613.472
2022-10-16T06:43:10.648Z,4159.296
2022-10-16T06:46:14.353Z,3944.16
2022-10-16T06:49:12.951Z,3944.16
2022-10-16T06:51:51.210Z,4015.872
2022-10-16T06:54:44.724Z,3872.448
2022-10-16T06:58:03.748Z,3800.736
2022-10-16T07:01:41.118Z,4015.872
2022-10-16T07:04:39.719Z,4207.104
2022-10-16T07:07:23.003Z,5043.744
2022-10-16T07:10:06.265Z,6597.504
2022-10-16T07:12:44.430Z,7123.392
2022-10-16T07:15:17.528Z,7314.624
2022-10-16T07:18:55.311Z,7888.32
2022-10-16T07:21:27.615Z,9370.368
2022-10-16T07:24:00.739Z,8748.864
2022-10-16T07:26:43.999Z,6310.656
2022-10-16T07:29:17.088Z,5808.672
2022-10-16T07:32:00.413Z,7123.392
2022-10-16T07:34:33.469Z,8127.36
2022-10-16T07:37:06.632Z,9322.56
2022-10-16T07:39:39.679Z,12238.848
2022-10-16T07:43:37.665Z,9800.64
2022-10-16T07:46:36.227Z,12908.16
2022-10-16T07:50:36.201Z,16541.568
2022-10-16T07:53:18.280Z,13959.936
2022-10-16T07:55:51.842Z,12238.848
2022-10-16T07:59:06.567Z,12812.544
2022-10-16T08:01:49.950Z,11426.112
2022-10-16T08:04:38.321Z,12334.464
2022-10-16T08:07:14.410Z,24477.696
2022-10-16T08:09:50.018Z,28302.336
2022-10-16T08:12:27.740Z,16637.184
2022-10-16T08:15:14.941Z,17784.576
2022-10-16T08:17:48.606Z,27346.176
2022-10-16T08:20:36.459Z,9561.6
2022-10-16T08:23:52.794Z,8031.744
2022-10-16T08:26:33.608Z,9131.328
2022-10-16T08:30:23.240Z,8987.904
2022-10-16T08:32:56.386Z,9609.408
2022-10-16T08:35:39.703Z,10326.528
2022-10-16T08:39:03.811Z,10422.144
2022-10-16T08:41:36.934Z,10517.76
2022-10-16T08:44:20.211Z,13481.856
2022-10-16T08:47:34.123Z,16063.488
2022-10-16T08:50:07.238Z,13195.008
2022-10-16T08:52:50.559Z,10278.72
2022-10-16T08:55:28.748Z,11043.648
2022-10-16T08:58:12.126Z,16541.568
2022-10-16T09:00:45.188Z,18453.888
2022-10-16T09:03:18.339Z,19410.048
2022-10-16T09:05:51.480Z,14533.632
2022-10-16T09:08:35.040Z,12143.232
2022-10-16T09:11:48.790Z,11952
2022-10-16T09:14:21.842Z,12047.616
2022-10-16T09:18:16.644Z,10039.68
2022-10-16T09:21:15.218Z,9035.712
2022-10-16T09:23:58.546Z,10469.952
2022-10-16T09:26:36.811Z,11952
2022-10-16T09:29:45.594Z,14820.48
2022-10-16T09:32:23.799Z,12095.424
2022-10-16T09:35:02.017Z,12621.312
2022-10-16T09:37:40.209Z,14342.4
2022-10-16T09:40:51.997Z,13577.472
2022-10-16T09:43:32.389Z,13768.704
2022-10-16T09:46:46.258Z,13290.624
2022-10-16T09:49:24.446Z,13768.704
2022-10-16T09:52:12.872Z,12143.232
2022-10-16T09:54:45.967Z,13481.856
2022-10-16T09:57:24.497Z,17593.344
2022-10-16T09:59:57.278Z,18836.352
2022-10-16T10:02:30.407Z,17497.728
2022-10-16T10:05:03.544Z,16637.184
2022-10-16T10:07:41.701Z,20653.056
2022-10-16T10:10:24.985Z,23425.92
2022-10-16T10:12:58.105Z,24095.232
2022-10-16T10:15:31.152Z,23617.152
2022-10-16T10:18:09.341Z,22087.296
2022-10-16T10:20:57.806Z,17975.808
2022-10-16T10:23:41.085Z,17593.344
2022-10-16T10:26:19.253Z,18071.424
2022-10-16T10:29:38.227Z,16732.8
2022-10-16T10:32:16.438Z,16637.184
2022-10-16T10:35:30.369Z,17019.648
2022-10-16T10:38:08.589Z,18549.504
2022-10-16T10:41:07.251Z,19218.816
2022-10-16T10:44:31.428Z,19696.896
2022-10-16T10:47:14.670Z,20174.976
2022-10-16T10:49:57.922Z,22087.296
2022-10-16T10:52:31.059Z,23617.152
2022-10-16T10:55:44.975Z,24095.232
2022-10-16T10:58:18.031Z,26772.48
2022-10-16T11:00:56.032Z,45513.216
2022-10-16T11:03:35.749Z,32891.904
2022-10-16T11:06:28.630Z,34421.76
2022-10-16T11:09:06.187Z,62724.096
2022-10-16T11:11:37.879Z,33465.6
2022-10-16T11:14:11.037Z,34421.76
2022-10-16T11:16:53.132Z,38628.864
2022-10-16T11:19:23.651Z,34995.456
2022-10-16T11:22:14.603Z,34804.224
2022-10-16T11:24:47.754Z,28302.336
2022-10-16T11:27:28.398Z,29258.496
2022-10-16T11:30:06.453Z,23425.92
2022-10-16T11:32:44.631Z,20653.056
2022-10-16T11:35:27.912Z,18549.504
2022-10-16T11:38:11.218Z,18167.04
2022-10-16T11:41:55.717Z,20270.592
2022-10-16T11:44:28.800Z,23139.072
2022-10-16T11:47:24.665Z,21226.752
2022-10-16T11:49:38.090Z,22852.224
2022-10-16T11:52:45.689Z,19505.664
2022-10-16T11:55:21.661Z,18549.504
2022-10-16T11:58:20.312Z,19218.816
2022-10-16T12:01:08.636Z,20748.672
2022-10-16T12:03:51.344Z,51250.176
2022-10-16T12:06:28.982Z,41306.112
2022-10-16T12:09:17.799Z,31935.744
2022-10-16T12:11:53.480Z,26772.48
2022-10-16T12:14:47.194Z,27154.944
2022-10-16T12:17:25.390Z,21417.984
2022-10-16T12:19:56.749Z,22469.76
2022-10-16T12:22:36.905Z,20366.208
2022-10-16T12:25:12.700Z,21131.136
2022-10-16T12:27:52.858Z,19218.816
2022-10-16T12:30:36.210Z,21035.52
2022-10-16T12:33:19.532Z,18645.12
2022-10-16T12:36:33.560Z,17880.192
2022-10-16T12:39:11.670Z,15202.944
2022-10-16T12:42:05.181Z,16254.72
2022-10-16T12:44:38.331Z,16445.952
2022-10-16T12:47:26.782Z,16063.488
2022-10-16T12:50:18.390Z,19027.584
2022-10-16T12:53:10.350Z,20939.904
2022-10-16T12:55:43.539Z,17975.808
2022-10-16T12:58:16.601Z,17497.728
2022-10-16T13:00:49.709Z,19410.048
2022-10-16T13:03:32.978Z,19601.28
2022-10-16T13:06:21.425Z,18358.272
2022-10-16T13:08:54.531Z,18931.968
2022-10-16T13:11:32.738Z,19888.128
2022-10-16T13:14:05.850Z,19601.28
2022-10-16T13:16:44.066Z,17880.192
2022-10-16T13:19:14.866Z,23808.384
2022-10-16T13:21:46.605Z,21226.752
2022-10-16T13:24:28.574Z,20270.592
2022-10-16T13:27:06.691Z,23139.072
2022-10-16T13:29:40.885Z,19218.816
2022-10-16T13:32:19.133Z,16541.568
2022-10-16T13:34:57.282Z,16063.488
2022-10-16T13:38:31.580Z,15872.256
2022-10-16T13:41:04.604Z,15489.792
2022-10-16T13:43:47.892Z,13959.936
2022-10-16T13:46:21.020Z,12334.464
2022-10-16T13:48:54.065Z,11808.576
2022-10-16T13:51:32.262Z,11473.92
2022-10-16T13:54:05.320Z,12430.08
2022-10-16T13:56:38.349Z,14342.4
2022-10-16T13:59:16.586Z,15394.176
2022-10-16T14:01:50.965Z,26581.248
2022-10-16T14:04:32.268Z,33274.368
2022-10-16T14:07:05.865Z,20461.824
2022-10-16T14:09:36.240Z,27919.872
2022-10-16T14:12:08.714Z,28493.568
2022-10-16T14:15:07.984Z,25625.088
2022-10-16T14:17:41.159Z,25625.088
2022-10-16T14:20:31.550Z,26390.016
2022-10-16T14:23:04.311Z,16159.104
2022-10-16T14:25:46.796Z,23139.072
2022-10-16T14:28:20.016Z,21226.752
2022-10-16T14:30:58.132Z,21417.984
2022-10-16T14:33:31.270Z,19696.896
2022-10-16T14:36:29.823Z,20079.36
2022-10-16T14:39:07.982Z,18167.04
2022-10-16T14:41:41.110Z,17402.112
2022-10-16T14:44:14.126Z,17975.808
2022-10-16T14:46:59.393Z,16732.8
2022-10-16T14:50:08.075Z,16541.568
2022-10-16T14:52:41.126Z,16063.488
2022-10-16T14:55:14.265Z,15681.024
2022-10-16T14:58:07.724Z,13673.088
2022-10-16T15:00:51.047Z,12525.696
2022-10-16T15:03:39.521Z,12191.04
2022-10-16T15:06:48.249Z,11808.576
2022-10-16T15:09:36.619Z,11665.152
2022-10-16T15:12:19.887Z,10517.76
2022-10-16T15:15:13.447Z,8844.48
2022-10-16T15:17:46.481Z,7410.24
2022-10-16T15:20:19.618Z,4804.704
2022-10-16T15:22:57.785Z,5545.728
2022-10-16T15:26:26.990Z,5713.056
2022-10-16T15:30:16.620Z,4039.776
2022-10-16T15:33:40.615Z,3059.712
2022-10-16T15:39:22.395Z,2641.392
2022-10-16T15:44:32.283Z,2270.88
2022-10-16T15:49:32.365Z,1804.752
2022-10-16T15:54:32.556Z,1476.072
2022-10-16T15:59:32.563Z,1111.536
2022-10-16T16:04:43.259Z,782.856
2022-10-16T16:09:32.821Z,522.9
2022-10-16T16:20:17.703Z,261.45
2022-10-16T16:24:33.122Z,176.292
2022-10-16T16:29:33.308Z,66.109
2022-10-16T16:34:33.376Z,26.145
2022-10-16T16:39:33.468Z,10.084
2022-10-16T16:44:33.570Z,3.735
2022-10-16T16:49:33.632Z,1.12
2022-10-16T16:59:33.885Z,0
